Russell Municipal Airport
KRSL : rendu visible

Aérodrome :











RETROUVEZ-NOUS SUR...

 
LOGIN :

S'inscrire | Disclaimer

   EN    FR    IT 

 









Légende :    VFR   VFR Marginal   IFR   IFR Intensif   IFR Très Intensif
Visi : 
Plafond : 
>= 8 km
>= 3000ft
5 à 8 km
1000 à 3000 ft
1500m à 5 km
500 à 1000 ft
800 à 1500m
200 à 500 ft
< 800m
< 200 ft
Symboles :   Orages  Brouillard  Fortes neiges  Fortes précipitations  Vent > 20 kt






- Altitude de l'aérodrome : 1862 ft


KRSL - Russell Municipal

DERNIER METAR :
  • 240530Z AUTO 17023G30KT 10SM OVC009 09/07 A2980 RMK AO2 PK WND 18030/0500 T00940072

METARs EXPIRÉS :
  • 240453Z AUTO 17019G27KT 10SM OVC011 09/07 A2980 RMK AO2 PK WND 17028/0435 SLP097 T00940067
  • 240353Z AUTO 16019G27KT 10SM OVC012 09/06 A2981 RMK AO2 PK WND 15034/0323 SLP100 T00890061
  • 240253Z AUTO 15021G29KT 10SM OVC010 08/05 A2982 RMK AO2 PK WND 16029/0251 SLP104 T00830050 56009

TAF KRSL
Valide du 24 à 00h jusqu'au 25 à 00h UTC


232324Z 2400/2424 16020G28KT P6SM OVC015
FM240600 17019G27KT P6SM VCSH OVC008 WS020/20045KT
FM241200 18017KT P6SM VCSH OVC008
FM241600 18017G26KT 6SM -SHRA BR OVC010
FM242000 29015G24KT 5SM SHRA BR OVC008
FIR KZKC / Amérique du Nord



MET'MAP, la Météo Aéronautique d'un coup d'oeil ! - Copyright ORBIFLY Décembre 2007 - Disclaimer

ORBIFLY MET'MAP TEAM :

Programmation & Développement : Alexandra Zaïnal
Sur une idée originale de : Baudouin d'Aumeries
Assistance à la programmation : Marc-Olivier Méhu
Soutien technique & logistique : Manuel Goepfert

Contact : metmap@orbifly.com




SOURCES & CREDITS :

   NOAA       Earth
Advisory